Time;durP1;ratioP1;P1;durP2;ratioP2;P2;SDS_P1;SDS_P2;PMS_P1;PMS_P2;Temp;Humidity;BMP_temperature;BMP_pressure;BME280_temperature;BME280_humidity;BME280_pressure;Samples;Min_cycle;Max_cycle;Signal;HPM_P1;HPM_P2
2022/04/26 03:36:17;;;;;;;34.55;23.13;;;;;;;8.51;82.99;101072.22;4973956;28;20055;-61
2022/04/26 03:38:47;;;;;;;38.00;22.20;;;;;;;8.60;82.86;101070.47;4975207;28;20046;-62
2022/04/26 03:41:15;;;;;;;33.05;23.58;;;;;;;8.51;83.23;101074.97;4974931;28;20066;-61
2022/04/26 03:43:42;;;;;;;40.92;23.52;;;;;;;8.54;83.28;101062.59;4974935;28;20567;-61
2022/04/26 03:46:10;;;;;;;38.33;22.77;;;;;;;8.61;83.41;101072.09;4948992;29;20059;-62
2022/04/26 03:48:37;;;;;;;38.13;22.40;;;;;;;8.71;82.67;101071.19;4970464;28;20406;-62
2022/04/26 03:51:04;;;;;;;40.38;23.15;;;;;;;8.92;82.04;101072.56;4966640;28;20067;-61
2022/04/26 03:53:33;;;;;;;35.90;26.35;;;;;;;8.87;81.82;101070.69;4974837;28;20043;-61
2022/04/26 03:56:00;;;;;;;42.38;25.08;;;;;;;8.99;81.47;101075.78;4960711;28;20063;-62
2022/04/26 03:58:29;;;;;;;38.67;25.25;;;;;;;8.87;81.76;101073.44;4978048;28;20051;-62
2022/04/26 04:00:56;;;;;;;38.58;24.95;;;;;;;8.95;81.76;101071.97;4960686;28;20050;-61
2022/04/26 04:03:24;;;;;;;37.17;25.45;;;;;;;9.10;81.05;101067.09;4978114;28;20057;-61
2022/04/26 04:05:51;;;;;;;39.72;25.50;;;;;;;9.20;80.39;101068.09;4978325;28;20069;-62
2022/04/26 04:08:19;;;;;;;39.00;25.40;;;;;;;8.96;81.21;101077.19;4975344;28;20050;-61
2022/04/26 04:10:46;;;;;;;40.03;26.15;;;;;;;8.85;81.59;101072.13;4961111;28;20418;-62
2022/04/26 04:13:13;;;;;;;37.00;25.27;;;;;;;8.78;82.07;101069.72;4978047;28;20050;-62
2022/04/26 04:15:41;;;;;;;39.65;25.33;;;;;;;8.71;82.82;101077.50;4976857;28;20054;-62
2022/04/26 04:19:17;;;;;;;39.92;26.15;;;;;;;8.60;83.09;101080.63;4963261;28;20047;-62
2022/04/26 04:20:55;;;;;;;44.70;27.75;;;;;;;8.58;83.61;101082.84;4977479;28;20061;-62
2022/04/26 04:23:22;;;;;;;42.63;27.40;;;;;;;8.60;83.33;101084.22;4977946;28;20511;-61
2022/04/26 04:25:50;;;;;;;46.17;27.60;;;;;;;8.84;83.00;101095.19;4978087;28;20046;-62
2022/04/26 04:28:17;;;;;;;44.17;26.42;;;;;;;8.80;82.33;101094.94;4977698;28;20051;-61
2022/04/26 04:30:44;;;;;;;42.53;27.67;;;;;;;8.39;83.92;101102.00;4976996;28;20058;-63
2022/04/26 04:33:12;;;;;;;42.40;27.90;;;;;;;8.45;84.44;101102.78;4977744;28;20054;-61
2022/04/26 04:35:39;;;;;;;42.97;26.67;;;;;;;8.67;83.88;101111.31;4977906;28;20130;-61
2022/04/26 04:38:06;;;;;;;39.92;25.95;;;;;;;8.64;83.42;101109.97;4975532;28;20055;-61
2022/04/26 04:40:33;;;;;;;40.33;25.38;;;;;;;8.69;82.95;101112.66;4977683;28;20051;-63
2022/04/26 04:43:01;;;;;;;43.35;26.30;;;;;;;8.82;82.76;101114.72;4977233;28;20517;-60
2022/04/26 04:45:28;;;;;;;42.25;26.10;;;;;;;8.76;82.16;101113.16;4976663;28;20399;-62
2022/04/26 04:47:55;;;;;;;37.88;24.88;;;;;;;8.98;82.62;101118.09;4959818;28;20467;-62
2022/04/26 04:50:22;;;;;;;40.55;25.13;;;;;;;8.97;81.77;101119.22;4977543;28;20057;-62
2022/04/26 04:52:50;;;;;;;41.08;24.67;;;;;;;9.37;80.39;101117.88;4966620;28;20533;-63
2022/04/26 04:55:18;;;;;;;43.40;24.75;;;;;;;9.20;79.53;101126.63;4957803;28;20050;-61
2022/04/26 04:57:46;;;;;;;40.03;24.90;;;;;;;9.26;79.25;101130.13;4958509;28;20046;-62
2022/04/26 05:00:13;;;;;;;42.35;25.83;;;;;;;8.85;81.06;101130.63;4943569;28;20466;-67
2022/04/26 05:02:41;;;;;;;41.72;26.45;;;;;;;8.70;82.06;101139.00;4976081;28;20066;-67
2022/04/26 05:05:08;;;;;;;44.70;26.10;;;;;;;8.64;82.63;101139.38;4975626;28;20406;-67
2022/04/26 05:07:36;;;;;;;42.65;27.13;;;;;;;8.45;83.29;101144.78;4972337;28;20065;-67
2022/04/26 05:10:05;;;;;;;40.30;26.58;;;;;;;8.53;83.81;101144.13;4976555;28;20062;-61
2022/04/26 05:12:33;;;;;;;48.30;27.20;;;;;;;8.63;82.94;101145.97;4973735;28;20061;-66
2022/04/26 05:15:02;;;;;;;45.45;27.90;;;;;;;8.46;83.69;101146.41;4958882;28;20058;-68
2022/04/26 05:17:29;;;;;;;45.53;27.10;;;;;;;8.37;83.92;101145.38;4959350;28;20062;-67
2022/04/26 05:19:58;;;;;;;45.00;27.45;;;;;;;8.52;83.49;101150.75;4976769;28;20067;-67
2022/04/26 05:22:25;;;;;;;40.92;26.83;;;;;;;8.54;83.84;101156.75;4959463;28;20051;-68
2022/04/26 05:24:58;;;;;;;43.20;26.65;;;;;;;8.39;84.27;101158.81;4964219;28;20054;-61
2022/04/26 05:27:27;;;;;;;46.80;28.80;;;;;;;8.29;84.24;101156.16;4976931;28;20050;-67
2022/04/26 05:29:55;;;;;;;44.13;27.40;;;;;;;8.44;84.74;101167.03;4974011;28;20054;-68
2022/04/26 05:32:28;;;;;;;44.45;27.70;;;;;;;8.33;84.43;101166.28;4976626;28;20077;-62
2022/04/26 05:34:56;;;;;;;55.60;28.38;;;;;;;8.33;84.54;101182.75;4979539;28;20050;-61
2022/04/26 05:37:25;;;;;;;39.08;26.80;;;;;;;8.45;83.82;101182.38;4983013;28;20050;-61
2022/04/26 05:39:52;;;;;;;39.47;26.63;;;;;;;8.37;84.42;101175.56;4966694;28;20051;-62
2022/04/26 05:42:20;;;;;;;45.80;28.02;;;;;;;8.49;84.33;101178.75;4966567;28;20518;-62
2022/04/26 05:44:48;;;;;;;51.85;29.20;;;;;;;8.55;83.98;101182.28;4971281;28;20051;-62
2022/04/26 05:47:15;;;;;;;43.97;28.08;;;;;;;8.77;82.80;101188.91;4942978;28;20066;-61
2022/04/26 05:49:42;;;;;;;46.95;31.20;;;;;;;8.38;84.43;101187.38;4976600;28;20487;-61
2022/04/26 05:52:10;;;;;;;53.03;32.75;;;;;;;8.37;85.50;101194.00;4970130;28;20051;-63
2022/04/26 05:54:37;;;;;;;54.42;32.53;;;;;;;8.36;85.39;101189.59;4976084;28;20055;-61
2022/04/26 05:57:05;;;;;;;45.90;32.40;;;;;;;8.47;85.29;101191.94;4978267;28;20054;-62
2022/04/26 05:59:34;;;;;;;59.28;33.22;;;;;;;8.42;85.25;101193.94;4985428;28;20057;-67
2022/04/26 06:02:02;;;;;;;51.07;32.50;;;;;;;8.56;85.24;101194.91;4974822;28;20482;-68
2022/04/26 06:04:30;;;;;;;58.05;32.45;;;;;;;8.76;83.97;101200.19;4958456;28;20683;-68
2022/04/26 06:06:57;;;;;;;58.83;32.25;;;;;;;8.63;84.59;101196.19;4959299;28;20069;-67
2022/04/26 06:09:25;;;;;;;66.53;41.38;;;;;;;8.89;84.45;101194.84;4976417;28;20074;-69
2022/04/26 06:11:52;;;;;;;59.25;37.65;;;;;;;9.23;83.12;101193.91;4976459;28;20529;-62
2022/04/26 06:14:21;;;;;;;71.13;42.67;;;;;;;9.27;81.57;101190.31;4975716;28;20475;-63
2022/04/26 06:16:48;;;;;;;77.90;45.42;;;;;;;9.29;82.15;101185.34;4957595;28;20070;-62
2022/04/26 06:19:15;;;;;;;69.03;45.58;;;;;;;9.66;80.65;101188.13;4974752;28;20054;-60
2022/04/26 06:21:43;;;;;;;76.75;48.40;;;;;;;9.90;78.98;101179.84;4974741;28;20047;-62
2022/04/26 06:24:10;;;;;;;77.05;49.47;;;;;;;10.11;78.12;101178.44;4973713;28;20051;-62
2022/04/26 06:26:37;;;;;;;70.00;46.75;;;;;;;10.10;77.25;101187.81;4967438;28;20062;-62
2022/04/26 06:29:05;;;;;;;79.70;49.03;;;;;;;9.80;77.97;101199.22;4974279;28;20046;-61
2022/04/26 06:31:32;;;;;;;75.05;47.25;;;;;;;10.09;77.84;101194.44;4983498;28;20043;-62
2022/04/26 06:34:00;;;;;;;74.32;48.75;;;;;;;10.05;77.25;101196.13;4974280;28;20530;-61
2022/04/26 06:36:27;;;;;;;72.82;47.83;;;;;;;9.97;78.34;101202.31;4974567;28;20050;-62
2022/04/26 06:38:54;;;;;;;75.45;47.78;;;;;;;9.92;77.96;101197.66;4958358;28;20081;-62
2022/04/26 06:41:22;;;;;;;74.70;48.35;;;;;;;10.05;78.25;101205.19;4955997;28;20051;-61
2022/04/26 06:43:49;;;;;;;71.70;47.10;;;;;;;10.23;77.77;101208.25;4981080;28;20501;-63
2022/04/26 06:46:16;;;;;;;70.07;47.00;;;;;;;10.40;76.49;101208.53;4974904;28;20073;-62
2022/04/26 06:48:48;;;;;;;70.43;46.95;;;;;;;10.52;76.11;101203.38;4946420;28;20051;-62
2022/04/26 06:51:16;;;;;;;71.47;48.13;;;;;;;10.51;75.38;101207.25;4975342;28;20066;-62
2022/04/26 06:53:43;;;;;;;71.50;49.13;;;;;;;10.46;75.12;101213.66;4954354;28;20066;-63
2022/04/26 06:56:12;;;;;;;74.55;47.83;;;;;;;10.41;76.13;101218.44;4948750;28;20387;-62
2022/04/26 06:58:39;;;;;;;70.38;47.33;;;;;;;10.68;75.60;101211.09;4975304;28;20046;-62
2022/04/26 07:01:07;;;;;;;72.28;47.08;;;;;;;11.17;74.19;101216.78;4957868;28;20054;-62
2022/04/26 07:03:54;;;;;;;71.20;47.75;;;;;;;10.86;73.74;101215.69;4959610;28;20050;-63
2022/04/26 07:06:22;;;;;;;77.57;51.83;;;;;;;10.98;73.16;101215.25;4973053;28;20058;-63
2022/04/26 07:08:49;;;;;;;83.75;52.28;;;;;;;10.71;73.71;101218.75;4957820;28;20061;-61
2022/04/26 07:11:16;;;;;;;74.72;50.67;;;;;;;10.62;74.21;101219.72;4958027;28;20054;-63
2022/04/26 07:13:44;;;;;;;77.05;53.38;;;;;;;10.56;74.04;101221.78;4962193;28;20545;-61
2022/04/26 07:16:11;;;;;;;77.68;53.17;;;;;;;10.66;73.59;101224.34;4973501;28;20054;-61
2022/04/26 07:18:38;;;;;;;79.88;54.22;;;;;;;10.37;75.19;101236.69;4975351;28;20070;-62
2022/04/26 07:21:12;;;;;;;85.35;57.78;;;;;;;10.53;73.99;101227.84;4974588;28;20051;-62
2022/04/26 07:23:39;;;;;;;79.55;56.13;;;;;;;10.16;75.15;101230.66;4972220;28;20066;-61
2022/04/26 07:26:06;;;;;;;86.03;57.45;;;;;;;10.14;75.13;101227.38;4976824;28;20050;-61
2022/04/26 07:28:34;;;;;;;81.90;54.15;;;;;;;10.71;74.20;101231.69;4957884;28;20061;-61
2022/04/26 07:31:01;;;;;;;76.90;52.80;;;;;;;11.13;72.13;101226.78;4978159;28;20055;-62
2022/04/26 07:36:14;;;;;;;67.47;47.42;;;;;;;11.14;71.30;101231.16;4978143;28;20486;-69
2022/04/26 07:38:42;;;;;;;71.25;45.80;;;;;;;11.31;70.20;101241.63;4977025;28;20526;-67
2022/04/26 07:41:11;;;;;;;63.88;45.08;;;;;;;11.52;69.72;101248.38;4978383;28;20054;-68
2022/04/26 07:43:38;;;;;;;83.50;46.55;;;;;;;11.38;69.90;101253.84;4977121;28;20055;-66
2022/04/26 07:46:06;;;;;;;67.38;45.53;;;;;;;11.03;70.41;101249.03;4984428;28;20058;-67
2022/04/26 07:48:34;;;;;;;65.55;42.60;;;;;;;11.16;70.32;101250.16;4962507;28;20051;-67
2022/04/26 07:51:03;;;;;;;66.20;43.78;;;;;;;11.35;69.19;101259.16;4960961;28;20058;-67
2022/04/26 07:53:30;;;;;;;69.07;45.50;;;;;;;11.25;69.52;101260.19;4979482;28;20047;-66
2022/04/26 07:55:58;;;;;;;62.45;41.05;;;;;;;11.29;69.95;101254.88;4978703;28;20047;-67
2022/04/26 07:58:25;;;;;;;65.43;42.28;;;;;;;11.43;69.15;101261.25;4981516;28;20050;-66
2022/04/26 08:00:52;;;;;;;62.10;41.92;;;;;;;11.99;67.74;101261.75;4979065;28;20498;-68
2022/04/26 08:03:20;;;;;;;72.95;45.33;;;;;;;11.76;66.93;101275.78;4978473;28;20047;-68
2022/04/26 08:05:49;;;;;;;67.53;44.97;;;;;;;11.31;68.71;101278.25;4977422;28;20146;-68
2022/04/26 08:08:17;;;;;;;62.30;45.33;;;;;;;11.65;68.05;101282.63;4960850;28;20441;-61
2022/04/26 08:10:44;;;;;;;64.78;43.72;;;;;;;11.52;68.71;101277.88;4989302;28;20050;-68
2022/04/26 08:13:11;;;;;;;65.15;43.40;;;;;;;12.00;67.41;101281.88;4976776;28;20070;-61
2022/04/26 08:15:39;;;;;;;66.93;45.35;;;;;;;11.61;67.44;101276.84;4978917;28;20058;-62
2022/04/26 08:18:07;;;;;;;72.20;46.20;;;;;;;11.61;68.13;101284.34;4977780;28;20046;-62
2022/04/26 08:20:34;;;;;;;68.32;46.05;;;;;;;11.29;69.33;101287.97;4976964;28;20046;-61
2022/04/26 08:23:02;;;;;;;73.35;47.47;;;;;;;11.45;68.62;101283.00;4977988;28;20054;-62
2022/04/26 08:28:15;;;;;;;58.83;41.38;;;;;;;12.00;67.17;101298.44;4959992;28;20066;-61
2022/04/26 08:30:42;;;;;;;66.07;44.35;;;;;;;10.98;70.39;101295.16;4956727;28;20047;-67
2022/04/26 08:33:10;;;;;;;61.05;40.40;;;;;;;11.45;69.17;101294.03;4969428;28;20071;-65
2022/04/26 08:35:40;;;;;;;59.83;41.53;;;;;;;11.60;68.31;101300.06;4975557;28;20506;-62
2022/04/26 08:38:27;;;;;;;61.47;42.53;;;;;;;11.57;67.35;101299.84;4976361;28;20051;-61
2022/04/26 08:40:55;;;;;;;69.45;44.38;;;;;;;11.48;67.79;101302.50;4967476;28;20047;-62
2022/04/26 08:43:22;;;;;;;56.60;41.40;;;;;;;11.69;67.05;101306.53;4975778;28;20058;-62
2022/04/26 08:45:49;;;;;;;63.28;41.70;;;;;;;11.47;68.38;101306.41;4973250;28;20049;-62
2022/04/26 08:51:03;;;;;;;59.90;40.80;;;;;;;11.22;67.87;101315.13;4974826;28;20051;-62
2022/04/26 08:53:35;;;;;;;60.20;40.28;;;;;;;11.35;66.82;101331.72;4972823;28;20532;-62
2022/04/26 08:56:06;;;;;;;56.90;38.03;;;;;;;11.37;66.44;101325.88;4960998;28;20054;-68
2022/04/26 08:58:34;;;;;;;59.42;38.47;;;;;;;11.54;65.89;101326.09;4962299;28;20055;-69
2022/04/26 09:01:09;;;;;;;58.40;38.58;;;;;;;11.66;64.51;101323.72;4948632;28;20595;-68
2022/04/26 09:03:58;;;;;;;56.15;36.25;;;;;;;12.01;64.24;101327.69;4977208;28;20490;-62
2022/04/26 09:06:32;;;;;;;57.70;38.35;;;;;;;11.75;64.42;101330.13;4977035;28;20058;-68
2022/04/26 09:09:09;;;;;;;60.45;41.25;;;;;;;11.91;64.92;101336.16;4975040;28;20050;-68
2022/04/26 09:11:38;;;;;;;56.63;37.53;;;;;;;12.08;64.12;101333.63;4976767;28;20053;-67
2022/04/26 09:14:29;;;;;;;63.60;40.08;;;;;;;11.85;63.79;101340.16;4957850;28;20152;-68
2022/04/26 09:17:09;;;;;;;54.15;38.97;;;;;;;11.84;64.65;101344.03;4973059;28;20054;-68
2022/04/26 09:19:47;;;;;;;59.47;36.85;;;;;;;12.12;63.32;101359.47;4967157;28;20517;-69
2022/04/26 09:22:26;;;;;;;56.45;37.90;;;;;;;11.53;64.83;101356.75;4972135;28;20054;-68
2022/04/26 09:24:59;;;;;;;55.40;38.08;;;;;;;11.50;64.69;101358.22;4975847;28;20306;-67
2022/04/26 09:27:27;;;;;;;56.42;37.53;;;;;;;11.83;64.22;101358.97;4975512;28;20062;-67
2022/04/26 09:29:55;;;;;;;57.88;37.95;;;;;;;11.93;63.02;101358.78;4976586;28;20803;-68
2022/04/26 09:32:26;;;;;;;52.72;36.20;;;;;;;12.06;63.41;101361.56;4970802;28;20572;-68
2022/04/26 09:34:53;;;;;;;58.13;37.78;;;;;;;11.84;62.99;101364.19;4955822;28;20066;-68
2022/04/26 09:37:21;;;;;;;54.47;37.78;;;;;;;11.61;63.67;101354.13;4943355;28;20061;-68
2022/04/26 09:40:08;;;;;;;52.55;35.97;;;;;;;11.79;63.26;101363.47;4975706;28;20517;-68
2022/04/26 09:42:36;;;;;;;53.40;36.90;;;;;;;12.26;62.73;101368.56;4969131;28;20059;-68
2022/04/26 09:45:06;;;;;;;58.58;38.00;;;;;;;12.52;61.19;101366.88;4957963;28;20051;-68
2022/04/26 09:47:40;;;;;;;56.05;37.63;;;;;;;12.26;62.66;101363.88;4975186;28;20058;-69
2022/04/26 09:50:11;;;;;;;53.97;38.30;;;;;;;12.13;62.26;101367.44;4974449;28;20047;-68
2022/04/26 09:52:41;;;;;;;59.30;38.78;;;;;;;11.96;63.25;101370.03;4947383;28;20055;-62
2022/04/26 09:55:13;;;;;;;57.70;38.42;;;;;;;12.21;62.65;101365.91;4973385;28;20509;-62
2022/04/26 09:57:44;;;;;;;54.42;39.60;;;;;;;12.15;62.83;101373.50;4962494;28;20505;-62
2022/04/26 10:00:12;;;;;;;52.83;38.03;;;;;;;12.19;63.41;101373.69;4975523;28;20431;-63
2022/04/26 10:02:51;;;;;;;57.10;40.30;;;;;;;12.41;62.68;101387.59;4975075;28;20043;-63
2022/04/26 10:05:21;;;;;;;57.47;41.60;;;;;;;12.22;63.01;101378.63;4959665;28;20051;-62
2022/04/26 10:07:49;;;;;;;61.42;40.20;;;;;;;12.11;63.71;101379.94;4941829;28;20488;-63
2022/04/26 10:10:20;;;;;;;62.65;40.97;;;;;;;12.09;64.14;101385.78;4958285;28;20047;-62
2022/04/26 10:15:35;;;;;;;58.92;39.70;;;;;;;12.23;63.58;101389.34;4966083;28;20050;-67
2022/04/26 10:18:28;;;;;;;59.88;40.67;;;;;;;12.54;62.41;101383.16;4973090;28;20066;-67
2022/04/26 10:20:55;;;;;;;59.95;39.67;;;;;;;12.56;61.95;101389.19;4956332;28;20063;-69
2022/04/26 10:23:22;;;;;;;58.28;39.00;;;;;;;12.57;62.52;101377.03;4975651;28;20525;-68
2022/04/26 10:26:11;;;;;;;55.38;38.33;;;;;;;12.59;61.58;101386.63;4974218;28;20059;-62
2022/04/26 10:29:01;;;;;;;55.90;37.38;;;;;;;12.84;60.36;101388.81;4953238;28;20642;-67
2022/04/26 10:31:39;;;;;;;53.67;37.38;;;;;;;12.58;60.38;101386.94;4972773;28;20054;-62
2022/04/26 10:34:29;;;;;;;61.80;39.20;;;;;;;12.23;61.89;101394.88;4955838;28;20874;-68
2022/04/26 10:36:59;;;;;;;61.30;39.47;;;;;;;12.32;61.56;101403.25;4963444;28;20043;-67
2022/04/26 10:39:30;;;;;;;;;;;;;;;12.31;61.20;101402.44;4974707;28;20051;-66
2022/04/26 10:42:00;;;;;;;64.28;39.10;;;;;;;12.40;61.53;101405.28;4963673;28;19922;-71
2022/04/26 10:44:30;;;;;;;55.53;37.22;;;;;;;12.88;60.52;101395.38;4956475;28;20501;-69
2022/04/26 10:47:01;;;;;;;50.47;36.53;;;;;;;12.75;59.02;101403.69;4967061;28;20482;-70
2022/04/26 10:49:43;;;;;;;53.50;37.58;;;;;;;12.42;60.59;101403.88;4970787;28;20533;-68
2022/04/26 10:52:13;;;;;;;56.40;37.42;;;;;;;12.59;59.13;101407.94;4974922;28;20046;-71
2022/04/26 10:54:47;;;;;;;50.90;37.60;;;;;;;12.25;59.80;101402.84;4969461;28;20055;-70
2022/04/26 10:57:16;;;;;;;49.47;35.45;;;;;;;12.58;59.70;101395.22;4960564;28;20854;-69
2022/04/26 10:59:48;;;;;;;51.67;36.65;;;;;;;12.64;59.58;101394.00;4966410;28;20062;-67
2022/04/26 11:02:16;;;;;;;48.03;34.15;;;;;;;13.18;58.03;101391.88;4968365;28;20574;-63
2022/04/26 11:04:45;;;;;;;50.10;34.17;;;;;;;13.42;56.84;101383.28;4959367;28;20054;-60
2022/04/26 11:07:17;;;;;;;49.50;34.80;;;;;;;12.76;57.26;101397.84;4977235;28;20062;-63
2022/04/26 11:09:49;;;;;;;47.60;31.95;;;;;;;13.06;57.13;101397.16;4950223;28;20062;-62
2022/04/26 11:12:20;;;;;;;48.17;34.10;;;;;;;13.28;56.75;101390.81;4971000;28;20422;-62
2022/04/26 11:14:49;;;;;;;47.83;34.63;;;;;;;13.66;55.79;101385.69;4954207;28;20051;-62
2022/04/26 11:17:18;;;;;;;43.00;31.42;;;;;;;14.11;54.70;101381.63;4932646;28;20046;-63
2022/04/26 11:19:56;;;;;;;49.30;34.40;;;;;;;13.91;54.55;101390.53;4939711;28;20069;-61
2022/04/26 11:22:24;;;;;;;51.58;35.85;;;;;;;13.52;55.89;101386.59;4967596;28;20419;-61
2022/04/26 11:28:05;;;;;;;49.15;36.33;;;;;;;13.07;58.23;101385.00;4972164;28;20051;-61
2022/04/26 11:30:40;;;;;;;51.53;37.23;;;;;;;12.71;58.29;101395.19;4969917;28;20409;-63
2022/04/26 11:33:11;;;;;;;52.03;37.30;;;;;;;12.96;58.43;101388.25;4975377;28;20054;-61
2022/04/26 11:35:39;;;;;;;46.75;34.75;;;;;;;12.97;57.89;101387.16;4973546;28;20050;-64
2022/04/26 11:38:15;;;;;;;46.92;34.50;;;;;;;13.42;57.09;101391.56;4983975;28;20054;-65
2022/04/26 11:41:14;;;;;;;47.85;34.50;;;;;;;13.10;57.90;101392.66;4977123;28;20061;-67
2022/04/26 11:43:42;;;;;;;52.55;34.17;;;;;;;13.49;57.87;101386.41;4932927;28;20063;-61
2022/04/26 11:46:11;;;;;;;54.53;33.75;;;;;;;13.91;56.35;101396.06;4957304;28;20051;-61
2022/04/26 11:48:47;;;;;;;51.25;33.95;;;;;;;13.83;56.31;101389.34;4955837;28;20051;-60
2022/04/26 11:51:14;;;;;;;46.05;32.33;;;;;;;13.52;56.44;101388.53;4966924;28;20051;-62
2022/04/26 11:53:41;;;;;;;51.65;34.83;;;;;;;13.40;57.56;101385.53;4970850;28;20051;-64
2022/04/26 11:56:09;;;;;;;48.03;33.60;;;;;;;13.27;58.68;101387.22;4975626;28;20042;-66
2022/04/26 11:58:38;;;;;;;42.90;31.02;;;;;;;13.83;57.20;101392.13;4965641;28;20051;-67
2022/04/26 12:01:15;;;;;;;45.35;33.08;;;;;;;13.59;56.73;101388.91;4970295;28;20055;-65
2022/04/26 12:03:51;;;;;;;48.05;30.42;;;;;;;13.90;56.43;101388.88;4977603;28;20545;-62
2022/04/26 12:06:25;;;;;;;39.53;29.48;;;;;;;13.87;55.34;101387.59;4956665;28;20058;-63
2022/04/26 12:09:04;;;;;;;41.97;29.98;;;;;;;13.60;55.77;101398.84;4959720;28;20518;-63
2022/04/26 12:11:35;;;;;;;43.30;29.85;;;;;;;14.02;54.84;101397.41;4960275;28;20050;-62
2022/04/26 12:14:05;;;;;;;41.92;29.95;;;;;;;13.62;55.83;101392.97;4978906;28;20051;-62
2022/04/26 12:16:37;;;;;;;;;;;;;;;14.03;55.06;101385.22;4976252;28;20131;-62
2022/04/26 12:19:04;;;;;;;39.72;28.08;;;;;;;13.97;54.94;101403.91;4972603;28;19936;-63
2022/04/26 12:21:46;;;;;;;38.35;28.80;;;;;;;13.49;55.98;101389.97;4971736;28;20054;-62
2022/04/26 12:24:16;;;;;;;39.78;27.92;;;;;;;13.85;55.41;101395.41;4974291;28;20062;-62
2022/04/26 12:26:56;;;;;;;40.37;29.37;;;;;;;14.31;54.30;101387.44;4963644;28;20121;-67
2022/04/26 12:29:39;;;;;;;39.60;28.27;;;;;;;14.33;53.35;101393.47;4961129;28;20498;-67
2022/04/26 12:32:08;;;;;;;35.28;26.63;;;;;;;14.44;53.98;101394.00;4960289;28;20073;-62
2022/04/26 12:34:36;;;;;;;34.23;25.13;;;;;;;14.62;52.71;101390.13;4940833;28;20063;-62
2022/04/26 12:37:11;;;;;;;35.03;25.00;;;;;;;14.47;52.52;101383.06;4963821;28;20313;-66
2022/04/26 12:39:42;;;;;;;34.90;27.23;;;;;;;14.17;53.47;101397.00;4957490;28;20081;-62
2022/04/26 12:42:39;;;;;;;34.80;26.45;;;;;;;14.20;54.70;101380.53;4979994;28;20046;-67
2022/04/26 12:45:24;;;;;;;32.17;25.05;;;;;;;14.95;53.04;101376.59;4960598;28;20058;-66
2022/04/26 12:51:11;;;;;;;;;;;;;;;14.27;53.64;101385.63;4957173;28;20055;-64
2022/04/26 12:53:39;;;;;;;35.78;25.58;;;;;;;14.32;53.20;101388.25;4970871;28;19922;-67
2022/04/26 12:56:08;;;;;;;31.83;23.25;;;;;;;14.22;53.78;101374.69;4978471;28;20059;-62
2022/04/26 12:58:44;;;;;;;35.35;22.35;;;;;;;14.11;53.40;101376.09;4968944;28;20058;-62
2022/04/26 13:01:14;;;;;;;36.15;21.98;;;;;;;14.19;53.74;101380.88;4963813;28;20043;-63
2022/04/26 13:03:42;;;;;;;32.35;21.55;;;;;;;14.37;52.97;101377.84;4942120;28;20479;-68
2022/04/26 13:06:18;;;;;;;29.63;22.50;;;;;;;14.13;52.82;101374.66;4972524;28;20039;-66
2022/04/26 13:09:06;;;;;;;32.47;21.80;;;;;;;14.33;52.58;101364.97;4968412;28;20054;-63
2022/04/26 13:11:33;;;;;;;32.80;22.27;;;;;;;14.63;51.37;101375.09;4974121;28;20051;-62
2022/04/26 13:14:00;;;;;;;29.10;22.35;;;;;;;14.68;51.71;101371.38;4961687;28;20054;-63
2022/04/26 13:16:28;;;;;;;28.85;21.40;;;;;;;14.88;51.22;101366.00;4966430;28;20050;-61
2022/04/26 13:18:55;;;;;;;26.05;19.63;;;;;;;15.31;49.48;101357.63;4983419;28;20059;-61
2022/04/26 13:21:26;;;;;;;;;;;;;;;15.50;48.61;101358.91;4943985;28;20063;-63
2022/04/26 13:23:57;;;;;;;21.30;17.25;;;;;;;14.73;49.52;101362.91;4976095;28;19922;-66
2022/04/26 13:26:25;;;;;;;25.33;17.60;;;;;;;15.08;49.73;101362.53;4972991;28;20065;-67
2022/04/26 13:28:52;;;;;;;26.70;17.90;;;;;;;15.20;49.20;101359.91;4953343;28;20047;-71
2022/04/26 13:31:20;;;;;;;25.98;17.08;;;;;;;15.28;48.88;101347.19;4956652;28;20047;-66
2022/04/26 13:33:48;;;;;;;22.08;17.63;;;;;;;15.42;48.46;101351.44;4973322;28;20051;-62
2022/04/26 13:36:17;;;;;;;23.65;17.35;;;;;;;14.93;50.16;101354.72;4974720;28;20058;-70
2022/04/26 13:38:44;;;;;;;24.17;17.60;;;;;;;15.05;50.16;101357.66;4969840;28;20055;-66
2022/04/26 13:41:12;;;;;;;22.90;16.35;;;;;;;15.59;49.41;101356.94;4975224;28;20057;-65
2022/04/26 13:43:41;;;;;;;23.65;16.60;;;;;;;15.84;47.92;101343.28;4975967;28;20483;-65
2022/04/26 13:46:16;;;;;;;22.00;15.52;;;;;;;15.35;48.36;101340.00;4974431;28;20050;-67
2022/04/26 13:48:45;;;;;;;20.48;14.68;;;;;;;14.88;48.85;101351.31;4964423;28;20051;-69
2022/04/26 13:51:13;;;;;;;18.98;13.98;;;;;;;15.04;48.17;101344.94;4950536;28;20050;-62
2022/04/26 13:53:40;;;;;;;20.17;12.70;;;;;;;15.16;48.11;101341.50;4977850;28;20043;-66
2022/04/26 13:56:09;;;;;;;18.52;13.85;;;;;;;15.30;48.07;101340.16;4973704;28;20054;-66
2022/04/26 13:58:36;;;;;;;20.95;13.85;;;;;;;15.23;47.99;101331.53;4973422;28;20433;-66
2022/04/26 14:01:04;;;;;;;17.60;13.43;;;;;;;15.49;47.99;101334.25;4966367;28;20054;-67
2022/04/26 14:03:31;;;;;;;18.33;13.32;;;;;;;15.77;47.78;101329.91;4975156;28;20047;-63
2022/04/26 14:06:00;;;;;;;19.52;14.23;;;;;;;15.84;47.53;101323.84;4973879;28;20509;-67
2022/04/26 14:08:28;;;;;;;18.95;13.38;;;;;;;16.03;47.35;101321.44;4970977;28;20070;-67
2022/04/26 14:10:55;;;;;;;23.02;14.40;;;;;;;15.37;47.64;101325.78;4974547;28;20357;-62
2022/04/26 14:13:24;;;;;;;18.52;13.32;;;;;;;15.25;48.39;101332.03;4968617;28;20055;-66
2022/04/26 14:24:10;;;;;;;18.35;12.52;;;;;;;15.29;48.22;101315.53;4971181;28;20035;-66
2022/04/26 14:26:41;;;;;;;17.30;12.45;;;;;;;15.35;47.66;101316.97;4976797;28;20054;-66
2022/04/26 14:29:08;;;;;;;17.85;11.80;;;;;;;15.43;48.07;101319.75;4985381;28;20058;-66
2022/04/26 14:31:39;;;;;;;18.15;11.45;;;;;;;15.60;47.33;101325.22;4956985;28;20069;-65
2022/04/26 14:34:06;;;;;;;15.73;11.63;;;;;;;15.59;47.07;101314.47;4975101;28;20062;-67
2022/04/26 14:36:34;;;;;;;15.25;11.63;;;;;;;15.54;47.11;101320.19;4976186;28;20051;-62
2022/04/26 14:39:19;;;;;;;18.00;10.82;;;;;;;15.81;46.90;101317.00;4975170;28;20058;-67
2022/04/26 14:41:47;;;;;;;17.67;11.88;;;;;;;15.53;47.37;101324.13;4974847;28;20514;-66
2022/04/26 14:44:15;;;;;;;18.00;10.82;;;;;;;15.61;47.19;101310.22;4968498;28;20047;-67
2022/04/26 14:46:42;;;;;;;15.23;10.30;;;;;;;15.76;46.95;101306.88;4973567;28;20066;-62
2022/04/26 14:49:09;;;;;;;15.18;10.27;;;;;;;15.69;47.26;101303.81;4953142;28;20046;-62
2022/04/26 14:51:37;;;;;;;15.15;10.60;;;;;;;16.04;46.77;101303.66;4974611;28;20070;-65
2022/04/26 14:54:04;;;;;;;13.32;10.52;;;;;;;16.20;46.56;101315.78;4959408;28;20058;-66
2022/04/26 14:56:31;;;;;;;16.10;12.43;;;;;;;15.67;47.21;101314.44;4973325;28;20050;-61
2022/04/26 14:59:20;;;;;;;24.30;12.45;;;;;;;15.57;48.32;101317.56;4973802;28;20640;-68
2022/04/26 15:01:48;;;;;;;25.90;12.38;;;;;;;15.61;48.26;101318.53;4958019;28;20075;-67
2022/04/26 15:04:17;;;;;;;16.77;10.98;;;;;;;15.72;47.70;101314.25;4974260;28;20051;-62
2022/04/26 15:06:45;;;;;;;15.48;10.75;;;;;;;15.93;46.64;101313.50;4965532;28;20518;-61
2022/04/26 15:17:33;;;;;;;19.10;9.13;;;;;;;15.78;46.24;101307.34;4975440;28;20391;-62
2022/04/26 15:20:01;;;;;;;12.85;8.60;;;;;;;16.01;46.29;101310.69;4969718;28;20418;-69
2022/04/26 15:22:29;;;;;;;12.45;8.32;;;;;;;15.84;45.79;101305.22;4970701;28;20046;-61
2022/04/26 15:24:57;;;;;;;10.88;8.25;;;;;;;16.04;45.57;101314.75;4975577;28;20054;-68
2022/04/26 15:27:25;;;;;;;11.55;8.85;;;;;;;15.83;45.46;101314.69;4958340;28;20050;-61
2022/04/26 15:29:52;;;;;;;11.75;8.77;;;;;;;15.97;45.38;101308.91;4974377;28;20042;-62
2022/04/26 15:32:23;;;;;;;10.25;7.68;;;;;;;15.90;45.06;101303.06;4958434;28;20051;-68
2022/04/26 15:34:50;;;;;;;12.38;7.35;;;;;;;15.89;44.81;101316.13;4958339;28;20050;-66